Time;durP1;ratioP1;P1;durP2;ratioP2;P2;SDS_P1;SDS_P2;PMS_P1;PMS_P2;Temp;Humidity;BMP_temperature;BMP_pressure;BME280_temperature;BME280_humidity;BME280_pressure;Samples;Min_cycle;Max_cycle;Signal;HPM_P1;HPM_P2
2023/05/13 00:00:44;;;;;;;2.60;2.40;;;12.80;99.90;;;;;;6274788;28;20812;-70
2023/05/13 00:03:47;;;;;;;2.27;2.07;;;12.80;99.90;;;;;;6274298;28;20461;-69
2023/05/13 00:06:51;;;;;;;2.33;2.13;;;12.80;99.90;;;;;;6273706;28;20930;-69
2023/05/13 00:09:54;;;;;;;2.93;2.60;;;12.80;99.90;;;;;;6277545;28;20453;-68
2023/05/13 00:12:57;;;;;;;2.17;2.00;;;12.80;99.90;;;;;;6266064;28;20481;-69
2023/05/13 00:16:02;;;;;;;1.80;1.70;;;12.80;99.90;;;;;;6274903;28;20481;-69
2023/05/13 00:19:06;;;;;;;1.90;1.80;;;12.80;99.90;;;;;;6274943;28;20438;-68
2023/05/13 00:22:09;;;;;;;1.80;1.70;;;12.80;99.90;;;;;;6279033;28;20459;-70
2023/05/13 00:25:13;;;;;;;1.77;1.67;;;12.80;99.90;;;;;;6281376;28;20476;-69
2023/05/13 00:28:16;;;;;;;1.70;1.60;;;12.80;99.90;;;;;;6276262;28;20477;-69
2023/05/13 00:31:21;;;;;;;1.67;1.57;;;12.80;99.90;;;;;;6274627;28;20478;-69
2023/05/13 00:34:24;;;;;;;1.90;1.70;;;12.80;99.90;;;;;;6274557;28;20490;-69
2023/05/13 00:37:27;;;;;;;1.40;1.30;;;12.80;99.90;;;;;;6274368;28;20480;-68
2023/05/13 00:40:30;;;;;;;1.60;1.50;;;12.80;99.90;;;;;;6274311;28;20468;-69
2023/05/13 00:43:33;;;;;;;1.47;1.37;;;12.80;99.90;;;;;;6274463;28;20512;-69
2023/05/13 00:46:38;;;;;;;2.10;1.93;;;12.80;99.90;;;;;;6274189;28;20493;-68
2023/05/13 00:49:41;;;;;;;2.30;2.10;;;12.80;99.90;;;;;;6274188;28;20462;-70
2023/05/13 00:52:46;;;;;;;1.43;1.13;;;12.80;99.90;;;;;;6273821;28;20482;-70
2023/05/13 00:55:49;;;;;;;2.13;1.60;;;12.70;99.90;;;;;;6273732;28;20481;-68
2023/05/13 00:58:52;;;;;;;1.67;1.57;;;12.70;99.90;;;;;;6273776;28;20478;-70
2023/05/13 01:02:07;;;;;;;1.47;1.37;;;12.70;99.90;;;;;;6274000;28;20494;-69
2023/05/13 01:05:17;;;;;;;2.17;1.40;;;12.70;99.90;;;;;;6274058;28;20478;-69
2023/05/13 01:08:33;;;;;;;2.17;1.97;;;12.70;99.90;;;;;;6274027;28;20982;-69
2023/05/13 01:11:40;;;;;;;2.50;1.50;;;12.80;99.90;;;;;;6273990;28;20482;-69
2023/05/13 01:14:52;;;;;;;1.67;1.57;;;12.80;99.90;;;;;;6273861;28;20467;-70
2023/05/13 01:18:00;;;;;;;2.60;1.47;;;12.70;99.90;;;;;;6270182;28;20478;-70
2023/05/13 01:21:06;;;;;;;2.80;1.60;;;12.70;99.90;;;;;;6278694;28;20493;-70
2023/05/13 01:24:10;;;;;;;1.50;1.40;;;12.70;99.90;;;;;;6278381;28;20785;-70
2023/05/13 01:27:14;;;;;;;1.70;1.60;;;12.70;99.90;;;;;;6278483;28;20540;-69
2023/05/13 01:30:17;;;;;;;1.53;1.43;;;12.70;99.90;;;;;;6278200;28;20481;-70
2023/05/13 01:33:20;;;;;;;1.63;1.10;;;12.70;99.90;;;;;;6278383;28;20493;-70
2023/05/13 01:36:24;;;;;;;2.20;1.40;;;12.70;99.90;;;;;;6277964;28;20968;-69
2023/05/13 01:39:30;;;;;;;1.33;1.23;;;12.70;99.90;;;;;;6278300;28;20524;-69
2023/05/13 01:42:34;;;;;;;1.60;1.50;;;12.60;99.90;;;;;;6278115;28;20969;-69
2023/05/13 01:45:37;;;;;;;1.47;1.30;;;12.70;99.90;;;;;;6277818;28;20535;-69
2023/05/13 01:48:40;;;;;;;1.40;1.30;;;12.60;99.90;;;;;;6278015;28;20481;-69
2023/05/13 01:51:43;;;;;;;1.37;1.20;;;12.60;99.90;;;;;;6277968;28;20471;-69
2023/05/13 01:54:48;;;;;;;1.00;0.90;;;12.60;99.90;;;;;;6277868;28;20502;-69
2023/05/13 01:57:51;;;;;;;1.43;1.33;;;12.60;99.90;;;;;;6277455;28;20950;-69
2023/05/13 02:00:54;;;;;;;1.20;1.10;;;12.60;99.90;;;;;;6277389;28;20888;-69
2023/05/13 02:03:58;;;;;;;2.13;1.23;;;12.50;99.90;;;;;;6277668;28;20800;-70
2023/05/13 02:07:02;;;;;;;1.30;1.20;;;12.60;99.90;;;;;;6277405;28;20524;-70
2023/05/13 02:10:07;;;;;;;1.60;1.47;;;12.50;99.90;;;;;;6277336;28;20762;-70
2023/05/13 02:13:10;;;;;;;1.33;1.10;;;12.60;99.90;;;;;;6277572;28;20462;-70
2023/05/13 02:16:17;;;;;;;2.10;1.20;;;12.60;99.90;;;;;;6277472;28;20489;-70
2023/05/13 02:19:23;;;;;;;2.00;1.80;;;12.60;99.90;;;;;;6277410;28;20476;-71
2023/05/13 02:22:26;;;;;;;1.93;1.30;;;12.60;99.90;;;;;;6268308;28;20477;-71
2023/05/13 02:25:31;;;;;;;1.37;1.27;;;12.60;99.90;;;;;;6276883;28;20484;-70
2023/05/13 02:28:34;;;;;;;1.30;1.20;;;12.60;99.90;;;;;;6276611;28;20474;-70
2023/05/13 02:31:38;;;;;;;1.40;1.30;;;12.50;99.90;;;;;;6277234;28;20472;-70
2023/05/13 02:34:41;;;;;;;1.40;1.30;;;12.60;99.90;;;;;;6276534;28;20492;-70
2023/05/13 02:37:46;;;;;;;1.77;1.67;;;12.50;99.90;;;;;;6276667;28;20466;-69
2023/05/13 02:40:51;;;;;;;1.37;1.27;;;12.50;99.90;;;;;;6276781;28;20933;-69
2023/05/13 02:43:54;;;;;;;1.10;1.10;;;12.50;99.90;;;;;;6280098;28;20470;-69
2023/05/13 02:46:57;;;;;;;2.40;1.60;;;12.50;99.90;;;;;;6282875;28;20745;-70
2023/05/13 02:50:00;;;;;;;1.73;1.63;;;12.50;99.90;;;;;;6277555;28;20926;-69
2023/05/13 02:53:03;;;;;;;1.80;1.67;;;12.40;99.90;;;;;;6252035;28;20475;-69
2023/05/13 02:56:08;;;;;;;1.43;1.33;;;12.40;99.90;;;;;;6251649;28;20588;-69
2023/05/13 02:59:11;;;;;;;1.40;1.30;;;12.40;99.90;;;;;;6251429;28;20954;-69
2023/05/13 03:02:14;;;;;;;1.80;1.70;;;12.40;99.90;;;;;;6267629;28;20474;-70
2023/05/13 03:05:17;;;;;;;1.50;1.40;;;12.40;99.90;;;;;;6276347;28;20607;-69
2023/05/13 03:08:20;;;;;;;3.50;1.67;;;12.40;99.90;;;;;;6276229;28;20481;-69
2023/05/13 03:11:26;;;;;;;1.60;1.50;;;12.40;99.90;;;;;;6276310;28;20465;-69
2023/05/13 03:14:29;;;;;;;1.70;1.53;;;12.50;99.90;;;;;;6275839;28;20489;-70
2023/05/13 03:17:32;;;;;;;3.10;1.93;;;12.40;99.90;;;;;;6275903;28;20477;-69
2023/05/13 03:20:35;;;;;;;1.67;1.57;;;12.50;99.90;;;;;;6275837;28;20474;-69
2023/05/13 03:23:38;;;;;;;1.73;1.63;;;12.50;99.90;;;;;;6275803;28;20466;-69
2023/05/13 03:26:43;;;;;;;5.67;2.17;;;12.50;99.90;;;;;;6271665;28;20469;-68
2023/05/13 03:29:46;;;;;;;1.97;1.87;;;12.50;99.90;;;;;;6276331;28;20528;-69
2023/05/13 03:32:49;;;;;;;1.97;1.87;;;12.50;99.90;;;;;;6276064;28;20973;-69
2023/05/13 03:35:52;;;;;;;2.00;1.90;;;12.50;99.90;;;;;;6275907;28;20516;-69
2023/05/13 03:38:55;;;;;;;1.67;1.57;;;12.50;99.90;;;;;;6274833;28;20481;-69
2023/05/13 03:42:00;;;;;;;1.97;1.73;;;12.50;99.90;;;;;;6274814;28;20476;-69
2023/05/13 03:45:03;;;;;;;2.17;2.07;;;12.50;99.90;;;;;;6274315;28;20470;-68
2023/05/13 03:48:07;;;;;;;1.90;1.80;;;12.60;99.90;;;;;;6275416;28;20808;-69
2023/05/13 03:51:10;;;;;;;1.47;1.37;;;12.50;99.90;;;;;;6275439;28;20828;-69
2023/05/13 03:54:13;;;;;;;1.80;1.70;;;12.60;99.90;;;;;;6274035;28;20489;-69
2023/05/13 03:57:18;;;;;;;2.43;2.33;;;12.50;99.90;;;;;;6273563;28;20486;-69
2023/05/13 04:00:21;;;;;;;1.90;1.80;;;12.50;99.90;;;;;;6274175;28;20481;-68
2023/05/13 04:03:25;;;;;;;2.33;2.20;;;12.50;99.90;;;;;;6273580;28;20908;-68
2023/05/13 04:06:28;;;;;;;2.40;2.17;;;12.50;99.90;;;;;;6274904;28;20504;-67
2023/05/13 04:09:31;;;;;;;2.50;2.30;;;12.50;99.90;;;;;;6274930;28;20474;-68
2023/05/13 04:12:36;;;;;;;2.60;2.20;;;12.50;99.90;;;;;;6274979;28;20469;-68
2023/05/13 04:15:39;;;;;;;2.60;2.40;;;12.50;99.90;;;;;;6274579;28;20477;-67
2023/05/13 04:18:42;;;;;;;2.60;2.40;;;12.60;99.90;;;;;;6274496;28;20481;-68
2023/05/13 04:21:45;;;;;;;2.80;2.60;;;12.60;99.90;;;;;;6274362;28;20473;-69
2023/05/13 04:24:55;;;;;;;3.00;2.80;;;12.60;99.90;;;;;;6274916;28;20539;-67
2023/05/13 04:27:59;;;;;;;2.80;2.60;;;12.60;99.90;;;;;;6274303;28;20533;-69
2023/05/13 04:31:03;;;;;;;3.40;3.10;;;12.60;99.90;;;;;;6273660;28;20453;-69
2023/05/13 04:34:06;;;;;;;3.73;3.43;;;12.60;99.90;;;;;;6274470;28;20477;-69
2023/05/13 04:37:09;;;;;;;4.00;3.70;;;12.60;99.90;;;;;;6274484;28;20481;-69
2023/05/13 04:40:13;;;;;;;4.07;3.67;;;12.60;99.90;;;;;;6276513;28;20469;-68
2023/05/13 04:43:17;;;;;;;4.20;3.80;;;12.60;99.90;;;;;;6279471;28;20850;-68
2023/05/13 04:46:26;;;;;;;4.00;3.70;;;12.70;99.90;;;;;;6278835;28;20478;-69
2023/05/13 04:49:29;;;;;;;4.80;4.40;;;12.70;99.90;;;;;;6278682;28;20547;-69
2023/05/13 04:52:32;;;;;;;5.13;4.73;;;12.70;99.90;;;;;;6277739;28;20810;-69
2023/05/13 04:55:35;;;;;;;5.80;5.30;;;12.70;99.90;;;;;;6282356;28;20470;-69
2023/05/13 04:58:40;;;;;;;6.60;6.00;;;12.70;99.90;;;;;;6282457;28;20469;-69
2023/05/13 05:01:43;;;;;;;6.37;5.80;;;12.70;99.90;;;;;;6304753;28;20464;-69
2023/05/13 05:04:48;;;;;;;13.93;6.20;;;12.70;99.90;;;;;;6306788;28;20465;-69
2023/05/13 05:07:51;;;;;;;8.20;6.47;;;12.80;99.90;;;;;;6285859;28;20474;-69
2023/05/13 05:10:54;;;;;;;6.07;5.27;;;12.80;99.90;;;;;;6279949;28;20492;-70
2023/05/13 05:13:59;;;;;;;6.70;6.10;;;12.80;99.90;;;;;;6279130;28;20477;-70
2023/05/13 05:17:02;;;;;;;6.53;5.93;;;12.80;99.90;;;;;;6279210;28;20481;-69
2023/05/13 05:20:06;;;;;;;7.03;6.33;;;12.70;99.90;;;;;;6278650;28;20505;-69
2023/05/13 05:23:10;;;;;;;7.33;6.63;;;12.70;99.90;;;;;;6278974;28;20469;-69
2023/05/13 05:26:13;;;;;;;9.00;8.10;;;12.70;99.90;;;;;;6278438;28;20542;-68
2023/05/13 05:29:18;;;;;;;7.70;6.90;;;12.70;99.90;;;;;;6278589;28;20485;-68
2023/05/13 05:32:21;;;;;;;10.07;9.17;;;12.80;99.90;;;;;;6278494;28;20473;-69
2023/05/13 05:35:25;;;;;;;8.07;7.37;;;12.70;99.90;;;;;;6273733;28;20561;-69
2023/05/13 05:38:28;;;;;;;10.80;9.80;;;12.70;99.90;;;;;;6278558;28;20477;-69
2023/05/13 05:41:33;;;;;;;10.50;9.60;;;12.70;99.90;;;;;;6278302;28;20548;-69
2023/05/13 05:44:37;;;;;;;11.23;10.13;;;12.80;99.90;;;;;;6277977;28;20996;-69
2023/05/13 05:47:40;;;;;;;11.30;10.20;;;12.80;99.90;;;;;;6278468;28;20486;-68
2023/05/13 05:50:43;;;;;;;12.00;10.17;;;12.80;99.90;;;;;;6277948;28;20505;-68
2023/05/13 05:53:47;;;;;;;12.20;10.43;;;12.80;99.90;;;;;;6278214;28;20975;-69
2023/05/13 05:56:50;;;;;;;12.57;11.47;;;12.80;99.90;;;;;;6277785;28;20474;-68
2023/05/13 05:59:54;;;;;;;11.80;10.60;;;12.80;99.90;;;;;;6277871;28;20843;-69
2023/05/13 06:02:57;;;;;;;12.63;11.33;;;12.80;99.90;;;;;;6277724;28;20848;-69
2023/05/13 06:06:01;;;;;;;12.30;11.10;;;12.80;99.90;;;;;;6277166;28;20481;-68
2023/05/13 06:09:04;;;;;;;13.07;11.67;;;12.80;99.90;;;;;;6277732;28;20476;-68
2023/05/13 06:12:08;;;;;;;10.90;10.00;;;12.80;99.90;;;;;;6278186;28;20474;-68
2023/05/13 06:15:12;;;;;;;12.60;11.40;;;12.90;99.90;;;;;;6277773;28;20478;-68
2023/05/13 06:18:15;;;;;;;11.33;10.33;;;12.90;99.90;;;;;;6278207;28;20475;-70
2023/05/13 06:21:18;;;;;;;11.03;9.97;;;12.90;99.90;;;;;;6278360;28;20503;-68
2023/05/13 06:24:22;;;;;;;10.40;9.50;;;12.90;99.90;;;;;;6278119;28;20532;-69
2023/05/13 06:27:25;;;;;;;10.60;9.40;;;12.90;99.90;;;;;;6277235;28;20829;-69
2023/05/13 06:30:30;;;;;;;11.03;10.00;;;12.90;99.90;;;;;;6277266;28;20477;-69
2023/05/13 06:33:33;;;;;;;10.87;9.87;;;12.90;99.90;;;;;;6276900;28;20498;-69
2023/05/13 06:36:36;;;;;;;11.07;9.87;;;12.90;99.90;;;;;;6276711;28;20585;-69
2023/05/13 06:39:39;;;;;;;11.03;9.93;;;12.90;99.90;;;;;;6267449;28;20970;-69
2023/05/13 06:42:42;;;;;;;11.53;8.93;;;13.00;99.90;;;;;;6276727;28;20512;-69
2023/05/13 06:45:47;;;;;;;9.23;8.33;;;13.10;99.90;;;;;;6276560;28;20980;-68
2023/05/13 06:48:52;;;;;;;10.17;9.07;;;13.10;99.90;;;;;;6276990;28;20473;-69
2023/05/13 06:51:55;;;;;;;8.97;8.13;;;13.10;99.90;;;;;;6276868;28;20477;-69
2023/05/13 06:54:59;;;;;;;10.30;8.60;;;13.10;99.90;;;;;;6276529;28;20485;-68
2023/05/13 06:58:02;;;;;;;9.80;8.90;;;13.00;99.90;;;;;;6276147;28;20474;-68
2023/05/13 07:01:06;;;;;;;8.37;7.67;;;13.00;99.90;;;;;;6276533;28;20775;-70
2023/05/13 07:04:10;;;;;;;9.33;8.53;;;12.90;99.90;;;;;;6276377;28;20501;-70
2023/05/13 07:07:14;;;;;;;9.77;8.93;;;12.90;99.90;;;;;;6276654;28;20502;-69
2023/05/13 07:10:17;;;;;;;8.70;7.90;;;12.90;99.90;;;;;;6276138;28;20477;-70
2023/05/13 07:13:21;;;;;;;7.53;6.93;;;12.80;99.90;;;;;;6276103;28;20973;-70
2023/05/13 07:16:25;;;;;;;7.70;7.00;;;12.80;99.90;;;;;;6275098;28;20470;-70
2023/05/13 07:19:28;;;;;;;7.07;6.47;;;12.70;99.90;;;;;;6276112;28;20462;-70
2023/05/13 07:22:32;;;;;;;6.90;6.40;;;12.70;99.90;;;;;;6275894;28;20786;-69
2023/05/13 07:25:35;;;;;;;6.83;6.30;;;12.70;99.90;;;;;;6279857;28;20478;-69
2023/05/13 07:28:38;;;;;;;6.63;5.47;;;12.80;99.90;;;;;;6279952;28;20485;-70
2023/05/13 07:31:42;;;;;;;6.37;5.83;;;12.90;99.90;;;;;;6276460;28;20462;-70
2023/05/13 07:34:46;;;;;;;6.33;5.83;;;13.00;99.90;;;;;;6275954;28;20474;-70
2023/05/13 07:37:49;;;;;;;8.03;7.33;;;13.10;99.90;;;;;;6275299;28;20469;-69
2023/05/13 07:40:52;;;;;;;5.90;5.50;;;13.20;99.90;;;;;;6270998;28;20470;-69
2023/05/13 07:43:56;;;;;;;6.30;5.70;;;13.20;99.90;;;;;;6275271;28;20794;-70
2023/05/13 07:47:00;;;;;;;5.97;5.47;;;13.20;99.90;;;;;;6275168;28;20477;-69
2023/05/13 07:50:04;;;;;;;5.67;5.27;;;13.10;99.90;;;;;;6275459;28;20482;-69
2023/05/13 07:53:07;;;;;;;6.00;5.40;;;13.10;99.90;;;;;;6275361;28;20785;-69
2023/05/13 07:56:11;;;;;;;6.47;5.87;;;13.00;99.90;;;;;;6275304;28;20478;-70
2023/05/13 07:59:14;;;;;;;6.57;6.07;;;13.10;99.90;;;;;;6276062;28;20775;-68
2023/05/13 08:02:18;;;;;;;5.73;5.23;;;13.10;99.90;;;;;;6275311;28;20481;-68
2023/05/13 08:05:22;;;;;;;4.17;3.87;;;13.20;99.90;;;;;;6275350;28;20470;-68
2023/05/13 08:08:25;;;;;;;4.50;4.10;;;13.30;99.90;;;;;;6275419;28;20476;-64
2023/05/13 08:11:29;;;;;;;4.20;3.90;;;13.20;99.90;;;;;;6274920;28;20799;-64
2023/05/13 08:14:32;;;;;;;4.50;4.10;;;13.30;99.90;;;;;;6274745;28;20477;-64
2023/05/13 08:17:37;;;;;;;4.40;4.10;;;13.20;99.90;;;;;;6274955;28;20700;-65
2023/05/13 08:20:40;;;;;;;3.07;2.83;;;13.30;99.90;;;;;;6274758;28;20782;-65
2023/05/13 08:23:43;;;;;;;3.63;3.10;;;13.30;99.90;;;;;;6275167;28;20466;-65
2023/05/13 08:26:48;;;;;;;3.20;2.87;;;13.30;99.90;;;;;;6275142;28;20772;-65
2023/05/13 08:29:51;;;;;;;3.40;3.10;;;13.40;99.90;;;;;;6273480;28;20480;-65
2023/05/13 08:32:55;;;;;;;3.37;3.07;;;13.50;99.90;;;;;;6274354;28;20803;-65
2023/05/13 08:36:00;;;;;;;3.20;3.00;;;13.50;99.90;;;;;;6273376;28;20501;-66
2023/05/13 08:39:04;;;;;;;3.43;3.13;;;13.60;99.90;;;;;;6273103;28;21008;-66
2023/05/13 08:42:10;;;;;;;3.27;3.07;;;13.60;99.90;;;;;;6273068;28;20482;-66
2023/05/13 08:45:15;;;;;;;2.87;2.67;;;13.70;99.90;;;;;;6272631;28;20475;-66
2023/05/13 08:48:20;;;;;;;2.70;2.50;;;13.70;99.90;;;;;;6264585;28;20488;-66
2023/05/13 08:51:24;;;;;;;4.03;3.73;;;13.80;99.90;;;;;;6272621;28;20474;-65
2023/05/13 08:54:28;;;;;;;3.10;2.90;;;14.00;99.90;;;;;;6271518;28;20983;-66
2023/05/13 08:57:31;;;;;;;2.43;2.23;;;14.10;99.90;;;;;;6272033;28;20481;-66
2023/05/13 09:00:35;;;;;;;2.70;2.50;;;14.20;99.90;;;;;;6273667;28;20484;-65
2023/05/13 09:03:45;;;;;;;2.87;2.67;;;14.30;99.90;;;;;;6273563;28;20485;-65
2023/05/13 09:06:48;;;;;;;3.70;3.40;;;14.40;99.90;;;;;;6269695;28;20478;-65
2023/05/13 09:09:51;;;;;;;3.60;3.40;;;14.40;99.90;;;;;;6272692;28;20781;-65
2023/05/13 09:12:55;;;;;;;3.80;3.50;;;14.40;99.90;;;;;;6270625;28;20470;-65
2023/05/13 09:15:58;;;;;;;3.33;3.13;;;14.40;99.90;;;;;;6271592;28;20497;-66
2023/05/13 09:19:05;;;;;;;3.43;3.13;;;14.30;99.90;;;;;;6272817;28;20503;-65
2023/05/13 09:22:17;;;;;;;5.73;5.23;;;14.20;99.90;;;;;;6272371;28;20446;-66
2023/05/13 09:25:22;;;;;;;5.33;4.83;;;14.10;99.90;;;;;;6271815;28;20477;-66
2023/05/13 09:28:26;;;;;;;5.00;4.60;;;14.00;99.90;;;;;;6272486;28;20516;-66
2023/05/13 09:31:33;;;;;;;4.90;4.50;;;14.00;99.90;;;;;;6272434;28;20489;-69
2023/05/13 09:34:38;;;;;;;5.40;4.90;;;13.90;99.90;;;;;;6271544;28;20469;-70
2023/05/13 09:37:41;;;;;;;4.40;4.07;;;14.00;99.90;;;;;;6270952;28;20549;-69
2023/05/13 09:40:51;;;;;;;4.10;3.80;;;13.90;99.90;;;;;;6275733;28;20476;-73
2023/05/13 09:43:54;;;;;;;4.53;4.10;;;13.90;99.90;;;;;;6278069;28;20474;-71
2023/05/13 09:47:01;;;;;;;3.83;3.53;;;13.90;99.90;;;;;;6278241;28;20477;-70
2023/05/13 09:50:07;;;;;;;4.10;3.70;;;13.90;99.90;;;;;;6273423;28;20964;-70
2023/05/13 09:53:11;;;;;;;4.77;4.37;;;13.80;99.90;;;;;;6277843;28;20477;-70
2023/05/13 09:56:20;;;;;;;5.50;5.00;;;13.80;99.90;;;;;;6277372;28;20485;-69
2023/05/13 09:59:23;;;;;;;4.07;3.77;;;13.70;99.90;;;;;;6277635;28;20482;-71
2023/05/13 10:02:27;;;;;;;3.73;3.47;;;13.80;99.90;;;;;;6277585;28;20485;-70
2023/05/13 10:05:33;;;;;;;3.63;3.33;;;13.90;99.90;;;;;;6277892;28;20474;-72
2023/05/13 10:08:38;;;;;;;3.53;3.30;;;14.00;99.90;;;;;;6284499;28;20478;-72
2023/05/13 10:11:46;;;;;;;3.80;3.20;;;14.10;99.90;;;;;;6282346;28;20466;-72
2023/05/13 10:14:51;;;;;;;2.80;2.60;;;14.10;99.90;;;;;;6278848;28;20462;-69
2023/05/13 10:17:55;;;;;;;2.97;2.77;;;13.90;99.90;;;;;;6277821;28;20474;-72
2023/05/13 10:21:00;;;;;;;3.40;3.10;;;14.00;99.90;;;;;;6277688;28;20492;-72
2023/05/13 10:24:04;;;;;;;3.87;3.57;;;14.10;99.90;;;;;;6278590;28;20965;-72
2023/05/13 10:27:08;;;;;;;3.87;3.67;;;14.00;99.90;;;;;;6276916;28;21031;-72
2023/05/13 10:30:13;;;;;;;3.30;3.10;;;13.90;99.90;;;;;;6276959;28;20481;-70
2023/05/13 10:33:17;;;;;;;3.17;2.90;;;13.90;99.90;;;;;;6276753;28;20469;-71
2023/05/13 10:36:42;;;;;;;3.27;3.07;;;14.00;99.90;;;;;;6276478;28;20565;-70
2023/05/13 10:40:13;;;;;;;4.47;3.50;;;13.80;99.90;;;;;;6274351;28;20474;-70
2023/05/13 10:43:18;;;;;;;4.10;3.80;;;13.70;99.90;;;;;;6268683;28;20461;-70
2023/05/13 10:46:22;;;;;;;4.60;4.20;;;13.70;99.90;;;;;;6276389;28;20541;-70
2023/05/13 10:49:33;;;;;;;4.47;4.07;;;13.70;99.90;;;;;;6276611;28;20454;-71
2023/05/13 10:52:47;;;;;;;6.17;5.67;;;13.60;99.90;;;;;;6276477;28;20462;-71
2023/05/13 10:55:54;;;;;;;6.90;5.73;;;13.60;99.90;;;;;;6276194;28;20489;-70
2023/05/13 10:58:58;;;;;;;7.13;6.53;;;13.70;99.90;;;;;;6276079;28;20470;-71
2023/05/13 11:02:02;;;;;;;7.43;6.70;;;13.70;99.90;;;;;;6276481;28;20783;-70
2023/05/13 11:05:06;;;;;;;7.63;6.83;;;13.80;99.90;;;;;;6276624;28;20481;-70
2023/05/13 11:08:11;;;;;;;9.03;8.13;;;13.80;99.90;;;;;;6276265;28;20470;-70
2023/05/13 11:11:27;;;;;;;10.57;9.47;;;13.80;99.90;;;;;;6274609;28;20473;-68
2023/05/13 11:14:31;;;;;;;11.10;9.40;;;13.70;99.90;;;;;;6272878;28;20462;-67
2023/05/13 11:17:37;;;;;;;12.47;10.50;;;13.70;99.90;;;;;;6274986;28;20466;-68
2023/05/13 11:20:40;;;;;;;13.13;11.60;;;13.70;99.90;;;;;;6275634;28;20541;-67
2023/05/13 11:23:57;;;;;;;11.87;10.60;;;13.70;99.90;;;;;;6276139;28;20493;-67
2023/05/13 11:27:14;;;;;;;11.23;9.90;;;13.60;99.90;;;;;;6276000;28;20479;-66
2023/05/13 11:30:22;;;;;;;13.37;11.47;;;13.60;99.90;;;;;;6275667;28;20481;-67
2023/05/13 11:34:01;;;;;;;14.93;11.70;;;13.70;99.90;;;;;;6275773;28;20477;-68
2023/05/13 11:37:08;;;;;;;18.90;16.47;;;13.70;99.90;;;;;;6272121;28;20796;-66
2023/05/13 11:40:21;;;;;;;17.07;15.30;;;13.70;99.90;;;;;;6274616;28;20446;-67
2023/05/13 11:43:25;;;;;;;13.67;12.37;;;13.60;99.90;;;;;;6274622;28;20474;-67
2023/05/13 11:46:28;;;;;;;13.60;12.20;;;13.70;99.90;;;;;;6274752;28;20929;-67
2023/05/13 11:49:37;;;;;;;14.50;12.57;;;13.80;99.90;;;;;;6275192;28;20470;-68
2023/05/13 11:52:42;;;;;;;13.23;11.83;;;13.80;99.90;;;;;;6275081;28;20477;-68
2023/05/13 11:55:46;;;;;;;13.97;12.23;;;13.80;99.90;;;;;;6275563;28;20477;-67
2023/05/13 11:58:50;;;;;;;12.10;10.90;;;13.80;99.90;;;;;;6265617;28;20863;-68
2023/05/13 12:02:00;;;;;;;15.37;12.20;;;13.70;99.90;;;;;;6274621;28;20470;-67
2023/05/13 12:05:05;;;;;;;11.80;10.60;;;13.70;99.90;;;;;;6274668;28;20474;-67
2023/05/13 12:08:09;;;;;;;12.50;11.17;;;13.70;99.90;;;;;;6275402;28;20642;-69
2023/05/13 12:11:14;;;;;;;13.10;11.27;;;13.60;99.90;;;;;;6274771;28;20465;-68
2023/05/13 12:14:17;;;;;;;13.60;12.20;;;13.60;99.90;;;;;;6274075;28;20463;-68
2023/05/13 12:17:21;;;;;;;12.70;11.40;;;13.70;99.90;;;;;;6274042;28;20782;-68
2023/05/13 12:20:25;;;;;;;13.63;10.90;;;13.70;99.90;;;;;;6275553;28;20466;-68
2023/05/13 12:23:39;;;;;;;14.70;11.60;;;13.70;99.90;;;;;;6274705;28;20478;-68
2023/05/13 12:26:43;;;;;;;12.23;10.87;;;13.60;99.90;;;;;;6274831;28;20828;-68
2023/05/13 12:29:46;;;;;;;12.77;11.23;;;13.70;99.90;;;;;;6275192;28;20478;-68
2023/05/13 12:32:50;;;;;;;12.87;11.03;;;13.60;99.90;;;;;;6275364;28;20796;-69
2023/05/13 12:35:54;;;;;;;11.57;10.07;;;13.60;99.90;;;;;;6275052;28;20466;-68
2023/05/13 12:38:59;;;;;;;11.40;10.30;;;13.60;99.90;;;;;;6274975;28;20933;-68
2023/05/13 12:42:05;;;;;;;9.93;8.37;;;13.70;99.90;;;;;;6274875;28;20512;-68
2023/05/13 12:45:09;;;;;;;11.60;10.33;;;13.70;99.90;;;;;;6276485;28;20481;-68
2023/05/13 12:48:13;;;;;;;20.57;14.10;;;13.80;99.90;;;;;;6283980;28;20465;-68
2023/05/13 12:51:16;;;;;;;21.97;14.20;;;13.80;99.90;;;;;;6282727;28;20470;-69
2023/05/13 12:54:20;;;;;;;13.80;12.00;;;13.90;99.90;;;;;;6278794;28;21003;-68
2023/05/13 12:57:25;;;;;;;10.60;9.43;;;13.90;99.90;;;;;;6276149;28;21020;-72
2023/05/13 13:00:28;;;;;;;19.03;14.10;;;14.00;99.90;;;;;;6273267;28;21000;-70
2023/05/13 13:03:31;;;;;;;12.90;10.80;;;14.10;99.90;;;;;;6273228;28;20817;-70
2023/05/13 13:06:35;;;;;;;9.70;8.70;;;14.20;99.90;;;;;;6273240;28;20784;-69
2023/05/13 13:09:38;;;;;;;8.43;7.73;;;14.20;99.90;;;;;;6272741;28;20462;-69
2023/05/13 13:12:43;;;;;;;9.97;8.83;;;14.20;99.90;;;;;;6271292;28;20481;-69
2023/05/13 13:15:46;;;;;;;16.47;13.13;;;14.20;99.90;;;;;;6276198;28;20466;-69
2023/05/13 13:18:50;;;;;;;9.87;8.97;;;14.10;99.90;;;;;;6278423;28;20485;-69
2023/05/13 13:21:57;;;;;;;9.00;8.20;;;14.00;99.90;;;;;;6278060;28;20749;-69
2023/05/13 13:25:00;;;;;;;12.50;9.77;;;14.10;99.90;;;;;;6277701;28;20449;-68
2023/05/13 13:28:04;;;;;;;10.00;8.17;;;14.10;99.90;;;;;;6278381;28;20434;-68
2023/05/13 13:31:08;;;;;;;9.37;8.33;;;14.10;99.90;;;;;;6278012;28;20456;-69
2023/05/13 13:34:11;;;;;;;8.00;7.20;;;14.10;99.90;;;;;;6277964;28;20894;-68
2023/05/13 13:37:14;;;;;;;7.70;7.00;;;14.20;99.90;;;;;;6255757;28;20485;-69
2023/05/13 13:40:18;;;;;;;8.00;7.30;;;14.20;99.90;;;;;;6277886;28;20461;-68
2023/05/13 13:43:23;;;;;;;8.07;7.20;;;14.20;99.90;;;;;;6277616;28;20481;-71
2023/05/13 13:46:26;;;;;;;9.40;8.50;;;14.30;99.90;;;;;;6278840;28;20481;-69
2023/05/13 13:49:29;;;;;;;8.87;8.07;;;14.20;99.90;;;;;;6275947;28;20489;-68
2023/05/13 13:52:33;;;;;;;10.00;9.00;;;14.00;99.90;;;;;;6277263;28;20474;-70
2023/05/13 13:55:36;;;;;;;9.13;8.33;;;13.90;99.90;;;;;;6276721;28;20485;-69
2023/05/13 13:58:40;;;;;;;8.60;7.77;;;13.90;99.90;;;;;;6277727;28;21088;-72
2023/05/13 14:01:43;;;;;;;9.37;8.47;;;13.90;99.90;;;;;;6262919;28;20471;-69
2023/05/13 14:04:47;;;;;;;9.63;8.73;;;13.90;99.90;;;;;;6251876;28;20475;-69
2023/05/13 14:07:54;;;;;;;10.27;8.90;;;13.80;99.90;;;;;;6268197;28;20557;-69
2023/05/13 14:10:57;;;;;;;9.47;8.57;;;13.80;99.90;;;;;;6253007;28;20470;-68
2023/05/13 14:14:02;;;;;;;8.80;8.00;;;13.90;99.90;;;;;;6264780;28;20503;-68
2023/05/13 14:17:05;;;;;;;8.00;7.20;;;13.90;99.90;;;;;;6276897;28;20474;-68
2023/05/13 14:20:10;;;;;;;8.10;7.40;;;14.10;99.90;;;;;;6277232;28;20481;-68
2023/05/13 14:23:14;;;;;;;8.13;7.40;;;14.10;99.90;;;;;;6277008;28;20485;-69
2023/05/13 14:26:17;;;;;;;7.10;6.50;;;14.30;99.90;;;;;;6275988;28;20474;-69
2023/05/13 14:29:21;;;;;;;7.47;6.70;;;14.50;99.90;;;;;;6277466;28;20477;-68
2023/05/13 14:32:25;;;;;;;6.20;5.60;;;14.50;99.90;;;;;;6277051;28;20485;-67
2023/05/13 14:35:28;;;;;;;6.13;5.57;;;14.50;99.90;;;;;;6276521;28;20557;-67
2023/05/13 14:38:31;;;;;;;9.03;7.63;;;14.50;99.90;;;;;;6276125;28;20493;-68
2023/05/13 14:41:34;;;;;;;7.40;6.70;;;14.50;99.90;;;;;;6276273;28;20477;-68
2023/05/13 14:44:40;;;;;;;7.67;6.97;;;14.50;99.90;;;;;;6276597;28;20466;-67
2023/05/13 14:47:43;;;;;;;11.77;8.03;;;14.60;99.90;;;;;;6276841;28;20558;-69
2023/05/13 14:50:47;;;;;;;10.07;7.07;;;14.50;99.90;;;;;;6276806;28;20852;-69
2023/05/13 14:53:50;;;;;;;9.50;8.50;;;14.40;99.90;;;;;;6276394;28;20481;-69
2023/05/13 14:56:53;;;;;;;9.00;8.03;;;14.50;99.90;;;;;;6275760;28;20961;-68
2023/05/13 14:59:58;;;;;;;8.53;7.73;;;14.50;99.90;;;;;;6275655;28;20478;-68
2023/05/13 15:03:02;;;;;;;12.70;9.20;;;14.40;99.90;;;;;;6258930;28;20618;-69
2023/05/13 15:06:08;;;;;;;10.00;8.23;;;14.40;99.90;;;;;;6256704;28;20484;-70
2023/05/13 15:09:11;;;;;;;9.73;8.73;;;14.40;99.90;;;;;;6275394;28;20473;-68
2023/05/13 15:12:14;;;;;;;11.63;9.60;;;14.30;99.90;;;;;;6276257;28;20477;-69
2023/05/13 15:15:19;;;;;;;13.50;10.50;;;14.20;99.90;;;;;;6275786;28;20481;-69
2023/05/13 15:18:25;;;;;;;11.93;9.50;;;14.10;99.90;;;;;;6275936;28;20488;-70
2023/05/13 15:21:28;;;;;;;12.30;10.57;;;14.10;99.90;;;;;;6275583;28;20466;-68
2023/05/13 15:24:31;;;;;;;10.97;9.33;;;14.10;99.90;;;;;;6275650;28;20470;-68
2023/05/13 15:27:34;;;;;;;9.73;8.73;;;14.10;99.90;;;;;;6276012;28;20807;-67
2023/05/13 15:30:39;;;;;;;11.90;9.77;;;14.20;99.90;;;;;;6280541;28;20965;-67
2023/05/13 15:33:42;;;;;;;9.80;8.73;;;14.30;99.90;;;;;;6289923;28;20470;-64
2023/05/13 15:36:47;;;;;;;12.10;9.93;;;14.30;99.90;;;;;;6287943;28;20476;-70
2023/05/13 15:39:50;;;;;;;11.60;10.10;;;14.30;99.90;;;;;;6275838;28;20486;-70
2023/05/13 15:42:53;;;;;;;12.90;10.53;;;14.20;99.90;;;;;;6275682;28;20478;-71
2023/05/13 15:45:58;;;;;;;14.50;10.87;;;14.20;99.90;;;;;;6275361;28;21007;-70
2023/05/13 15:49:02;;;;;;;14.10;10.17;;;14.20;99.90;;;;;;6275425;28;20458;-70
2023/05/13 15:52:05;;;;;;;12.93;11.13;;;14.20;99.90;;;;;;6275307;28;20481;-70
2023/05/13 15:55:10;;;;;;;14.37;11.20;;;14.10;99.90;;;;;;6275870;28;20474;-69